sensor_id;sensor_type;location;lat;lon;timestamp;P1;durP1;ratioP1;P2;durP2;ratioP2
42260;SDS011;27926;48.062;7.474;2023-04-20T00:01:52;14.18;;;6.78;;
42260;SDS011;27926;48.062;7.474;2023-04-20T00:04:17;10.43;;;6.35;;
42260;SDS011;27926;48.062;7.474;2023-04-20T00:06:41;16.50;;;6.60;;
42260;SDS011;27926;48.062;7.474;2023-04-20T00:09:07;10.30;;;6.17;;
42260;SDS011;27926;48.062;7.474;2023-04-20T00:11:31;12.38;;;5.88;;
42260;SDS011;27926;48.062;7.474;2023-04-20T00:13:56;13.00;;;6.25;;
42260;SDS011;27926;48.062;7.474;2023-04-20T00:16:20;8.88;;;5.32;;
42260;SDS011;27926;48.062;7.474;2023-04-20T00:18:45;10.23;;;5.85;;
42260;SDS011;27926;48.062;7.474;2023-04-20T00:21:10;9.95;;;5.70;;
42260;SDS011;27926;48.062;7.474;2023-04-20T00:23:35;9.82;;;5.78;;
42260;SDS011;27926;48.062;7.474;2023-04-20T00:26:00;9.25;;;4.93;;
42260;SDS011;27926;48.062;7.474;2023-04-20T00:28:24;10.57;;;5.68;;
42260;SDS011;27926;48.062;7.474;2023-04-20T00:30:49;10.73;;;5.78;;
42260;SDS011;27926;48.062;7.474;2023-04-20T00:33:14;13.13;;;6.32;;
42260;SDS011;27926;48.062;7.474;2023-04-20T00:35:38;22.08;;;5.60;;
42260;SDS011;27926;48.062;7.474;2023-04-20T00:38:03;11.60;;;5.40;;
42260;SDS011;27926;48.062;7.474;2023-04-20T00:40:28;11.00;;;4.93;;
42260;SDS011;27926;48.062;7.474;2023-04-20T00:42:52;11.20;;;6.00;;
42260;SDS011;27926;48.062;7.474;2023-04-20T00:45:17;11.93;;;5.78;;
42260;SDS011;27926;48.062;7.474;2023-04-20T00:47:42;11.63;;;5.88;;
42260;SDS011;27926;48.062;7.474;2023-04-20T00:50:06;8.45;;;5.13;;
42260;SDS011;27926;48.062;7.474;2023-04-20T00:52:31;10.67;;;4.60;;
42260;SDS011;27926;48.062;7.474;2023-04-20T00:54:56;10.77;;;4.50;;
42260;SDS011;27926;48.062;7.474;2023-04-20T00:57:21;8.45;;;4.63;;
42260;SDS011;27926;48.062;7.474;2023-04-20T00:59:46;5.43;;;4.35;;
42260;SDS011;27926;48.062;7.474;2023-04-20T01:02:11;9.27;;;4.40;;
42260;SDS011;27926;48.062;7.474;2023-04-20T01:04:36;7.97;;;4.72;;
42260;SDS011;27926;48.062;7.474;2023-04-20T01:07:01;9.43;;;4.50;;
42260;SDS011;27926;48.062;7.474;2023-04-20T01:09:26;5.13;;;3.67;;
42260;SDS011;27926;48.062;7.474;2023-04-20T01:11:50;5.65;;;4.15;;
42260;SDS011;27926;48.062;7.474;2023-04-20T01:14:15;7.97;;;4.00;;
42260;SDS011;27926;48.062;7.474;2023-04-20T01:16:39;6.47;;;4.60;;
42260;SDS011;27926;48.062;7.474;2023-04-20T01:19:04;10.27;;;4.47;;
42260;SDS011;27926;48.062;7.474;2023-04-20T01:21:29;7.10;;;4.18;;
42260;SDS011;27926;48.062;7.474;2023-04-20T01:23:54;7.22;;;4.40;;
42260;SDS011;27926;48.062;7.474;2023-04-20T01:26:19;10.38;;;4.43;;
42260;SDS011;27926;48.062;7.474;2023-04-20T01:28:45;9.63;;;4.38;;
42260;SDS011;27926;48.062;7.474;2023-04-20T01:31:09;12.70;;;4.63;;
42260;SDS011;27926;48.062;7.474;2023-04-20T01:33:35;7.28;;;4.47;;
42260;SDS011;27926;48.062;7.474;2023-04-20T01:36:00;8.48;;;3.92;;
42260;SDS011;27926;48.062;7.474;2023-04-20T01:38:25;14.60;;;5.07;;
42260;SDS011;27926;48.062;7.474;2023-04-20T01:40:50;15.00;;;4.80;;
42260;SDS011;27926;48.062;7.474;2023-04-20T01:43:15;14.43;;;4.82;;
42260;SDS011;27926;48.062;7.474;2023-04-20T01:45:40;5.70;;;4.13;;
42260;SDS011;27926;48.062;7.474;2023-04-20T01:48:04;11.38;;;3.83;;
42260;SDS011;27926;48.062;7.474;2023-04-20T01:50:29;11.10;;;4.10;;
42260;SDS011;27926;48.062;7.474;2023-04-20T01:52:54;10.10;;;4.25;;
42260;SDS011;27926;48.062;7.474;2023-04-20T01:55:19;6.90;;;4.20;;
42260;SDS011;27926;48.062;7.474;2023-04-20T01:57:43;5.65;;;3.95;;
42260;SDS011;27926;48.062;7.474;2023-04-20T02:00:12;12.50;;;4.22;;
42260;SDS011;27926;48.062;7.474;2023-04-20T02:02:36;13.35;;;4.05;;
42260;SDS011;27926;48.062;7.474;2023-04-20T02:05:01;10.70;;;4.57;;
42260;SDS011;27926;48.062;7.474;2023-04-20T02:07:26;8.35;;;4.45;;
42260;SDS011;27926;48.062;7.474;2023-04-20T02:09:50;11.90;;;4.47;;
42260;SDS011;27926;48.062;7.474;2023-04-20T02:12:15;15.27;;;4.40;;
42260;SDS011;27926;48.062;7.474;2023-04-20T02:14:40;8.55;;;4.50;;
42260;SDS011;27926;48.062;7.474;2023-04-20T02:17:04;9.55;;;4.13;;
42260;SDS011;27926;48.062;7.474;2023-04-20T02:19:29;6.57;;;4.15;;
42260;SDS011;27926;48.062;7.474;2023-04-20T02:21:54;8.27;;;4.07;;
42260;SDS011;27926;48.062;7.474;2023-04-20T02:24:18;13.75;;;3.80;;
42260;SDS011;27926;48.062;7.474;2023-04-20T02:26:43;6.85;;;4.53;;
42260;SDS011;27926;48.062;7.474;2023-04-20T02:29:08;11.68;;;4.43;;
42260;SDS011;27926;48.062;7.474;2023-04-20T02:31:32;8.30;;;4.30;;
42260;SDS011;27926;48.062;7.474;2023-04-20T02:33:57;5.55;;;4.15;;
42260;SDS011;27926;48.062;7.474;2023-04-20T02:36:22;9.40;;;3.90;;
42260;SDS011;27926;48.062;7.474;2023-04-20T02:38:47;5.65;;;3.33;;
42260;SDS011;27926;48.062;7.474;2023-04-20T02:41:11;7.35;;;3.50;;
42260;SDS011;27926;48.062;7.474;2023-04-20T02:43:36;9.52;;;4.20;;
42260;SDS011;27926;48.062;7.474;2023-04-20T02:46:01;12.95;;;4.63;;
42260;SDS011;27926;48.062;7.474;2023-04-20T02:48:25;7.90;;;3.75;;
42260;SDS011;27926;48.062;7.474;2023-04-20T02:50:53;7.50;;;3.85;;
42260;SDS011;27926;48.062;7.474;2023-04-20T02:53:19;7.00;;;3.78;;
42260;SDS011;27926;48.062;7.474;2023-04-20T02:55:43;8.43;;;4.10;;
42260;SDS011;27926;48.062;7.474;2023-04-20T02:58:08;10.67;;;4.57;;
42260;SDS011;27926;48.062;7.474;2023-04-20T03:00:33;5.75;;;3.90;;
42260;SDS011;27926;48.062;7.474;2023-04-20T03:02:57;9.33;;;4.43;;
42260;SDS011;27926;48.062;7.474;2023-04-20T03:05:22;6.05;;;4.15;;
42260;SDS011;27926;48.062;7.474;2023-04-20T03:07:47;18.65;;;4.55;;
42260;SDS011;27926;48.062;7.474;2023-04-20T03:10:11;8.60;;;4.13;;
42260;SDS011;27926;48.062;7.474;2023-04-20T03:12:36;13.40;;;5.07;;
42260;SDS011;27926;48.062;7.474;2023-04-20T03:15:00;12.02;;;4.05;;
42260;SDS011;27926;48.062;7.474;2023-04-20T03:17:27;6.05;;;3.88;;
42260;SDS011;27926;48.062;7.474;2023-04-20T03:19:51;7.97;;;3.78;;
42260;SDS011;27926;48.062;7.474;2023-04-20T03:22:16;8.30;;;4.60;;
42260;SDS011;27926;48.062;7.474;2023-04-20T03:24:42;10.70;;;4.78;;
42260;SDS011;27926;48.062;7.474;2023-04-20T03:27:06;8.27;;;3.75;;
42260;SDS011;27926;48.062;7.474;2023-04-20T03:29:31;8.95;;;3.72;;
42260;SDS011;27926;48.062;7.474;2023-04-20T03:31:56;6.03;;;3.95;;
42260;SDS011;27926;48.062;7.474;2023-04-20T03:34:20;10.95;;;4.85;;
42260;SDS011;27926;48.062;7.474;2023-04-20T03:36:45;14.18;;;5.03;;
42260;SDS011;27926;48.062;7.474;2023-04-20T03:39:09;12.33;;;3.77;;
42260;SDS011;27926;48.062;7.474;2023-04-20T03:41:34;25.23;;;5.07;;
42260;SDS011;27926;48.062;7.474;2023-04-20T03:43:58;12.57;;;4.85;;
42260;SDS011;27926;48.062;7.474;2023-04-20T03:46:23;24.90;;;4.13;;
42260;SDS011;27926;48.062;7.474;2023-04-20T03:48:48;10.55;;;4.05;;
42260;SDS011;27926;48.062;7.474;2023-04-20T03:51:13;10.23;;;4.72;;
42260;SDS011;27926;48.062;7.474;2023-04-20T03:53:37;11.23;;;5.20;;
42260;SDS011;27926;48.062;7.474;2023-04-20T03:56:02;8.88;;;4.75;;
42260;SDS011;27926;48.062;7.474;2023-04-20T03:58:27;13.95;;;4.50;;
42260;SDS011;27926;48.062;7.474;2023-04-20T04:00:51;9.05;;;4.93;;
42260;SDS011;27926;48.062;7.474;2023-04-20T04:03:16;11.80;;;5.03;;
42260;SDS011;27926;48.062;7.474;2023-04-20T04:05:40;8.50;;;4.82;;
42260;SDS011;27926;48.062;7.474;2023-04-20T04:08:05;6.80;;;4.22;;
42260;SDS011;27926;48.062;7.474;2023-04-20T04:10:30;8.75;;;4.10;;
42260;SDS011;27926;48.062;7.474;2023-04-20T04:12:54;13.27;;;4.40;;
42260;SDS011;27926;48.062;7.474;2023-04-20T04:15:19;14.10;;;4.75;;
42260;SDS011;27926;48.062;7.474;2023-04-20T04:17:44;11.88;;;4.53;;
42260;SDS011;27926;48.062;7.474;2023-04-20T04:20:09;10.05;;;5.38;;
42260;SDS011;27926;48.062;7.474;2023-04-20T04:22:34;10.95;;;5.30;;
42260;SDS011;27926;48.062;7.474;2023-04-20T04:24:59;19.15;;;5.15;;
42260;SDS011;27926;48.062;7.474;2023-04-20T04:27:24;14.20;;;5.25;;
42260;SDS011;27926;48.062;7.474;2023-04-20T04:29:48;11.60;;;4.47;;
42260;SDS011;27926;48.062;7.474;2023-04-20T04:32:13;10.73;;;5.20;;
42260;SDS011;27926;48.062;7.474;2023-04-20T04:34:38;19.88;;;4.75;;
42260;SDS011;27926;48.062;7.474;2023-04-20T04:37:07;8.93;;;4.72;;
42260;SDS011;27926;48.062;7.474;2023-04-20T04:39:31;14.40;;;5.32;;
42260;SDS011;27926;48.062;7.474;2023-04-20T04:41:56;16.95;;;5.60;;
42260;SDS011;27926;48.062;7.474;2023-04-20T04:44:20;18.43;;;5.03;;
42260;SDS011;27926;48.062;7.474;2023-04-20T04:46:45;9.88;;;4.93;;
42260;SDS011;27926;48.062;7.474;2023-04-20T04:49:10;7.75;;;4.80;;
42260;SDS011;27926;48.062;7.474;2023-04-20T04:51:35;10.48;;;5.80;;
42260;SDS011;27926;48.062;7.474;2023-04-20T04:53:59;14.85;;;5.57;;
42260;SDS011;27926;48.062;7.474;2023-04-20T04:56:24;14.23;;;5.60;;
42260;SDS011;27926;48.062;7.474;2023-04-20T04:58:48;11.67;;;5.30;;
42260;SDS011;27926;48.062;7.474;2023-04-20T05:01:13;20.30;;;5.50;;
42260;SDS011;27926;48.062;7.474;2023-04-20T05:03:38;13.87;;;5.20;;
42260;SDS011;27926;48.062;7.474;2023-04-20T05:06:02;10.13;;;5.40;;
42260;SDS011;27926;48.062;7.474;2023-04-20T05:08:27;12.57;;;5.32;;
42260;SDS011;27926;48.062;7.474;2023-04-20T05:10:52;13.33;;;5.40;;
42260;SDS011;27926;48.062;7.474;2023-04-20T05:13:16;9.00;;;5.47;;
42260;SDS011;27926;48.062;7.474;2023-04-20T05:15:41;8.55;;;4.72;;
42260;SDS011;27926;48.062;7.474;2023-04-20T05:18:05;6.55;;;5.32;;
42260;SDS011;27926;48.062;7.474;2023-04-20T05:20:30;10.13;;;4.85;;
42260;SDS011;27926;48.062;7.474;2023-04-20T05:22:55;8.13;;;4.68;;
42260;SDS011;27926;48.062;7.474;2023-04-20T05:25:19;8.88;;;5.05;;
42260;SDS011;27926;48.062;7.474;2023-04-20T05:27:44;11.88;;;5.05;;
42260;SDS011;27926;48.062;7.474;2023-04-20T05:30:09;11.77;;;5.37;;
42260;SDS011;27926;48.062;7.474;2023-04-20T05:32:34;13.15;;;6.68;;
42260;SDS011;27926;48.062;7.474;2023-04-20T05:34:58;10.02;;;5.18;;
42260;SDS011;27926;48.062;7.474;2023-04-20T05:37:23;13.13;;;4.63;;
42260;SDS011;27926;48.062;7.474;2023-04-20T05:39:48;7.43;;;4.78;;
42260;SDS011;27926;48.062;7.474;2023-04-20T05:42:12;12.32;;;5.35;;
42260;SDS011;27926;48.062;7.474;2023-04-20T05:44:37;7.53;;;4.78;;
42260;SDS011;27926;48.062;7.474;2023-04-20T05:47:04;12.30;;;5.20;;
42260;SDS011;27926;48.062;7.474;2023-04-20T05:49:31;9.60;;;4.97;;
42260;SDS011;27926;48.062;7.474;2023-04-20T05:51:56;10.75;;;4.97;;
42260;SDS011;27926;48.062;7.474;2023-04-20T05:54:21;7.65;;;3.95;;
42260;SDS011;27926;48.062;7.474;2023-04-20T05:56:45;9.38;;;4.15;;
42260;SDS011;27926;48.062;7.474;2023-04-20T05:59:10;11.63;;;4.68;;
42260;SDS011;27926;48.062;7.474;2023-04-20T06:01:34;18.48;;;5.30;;
42260;SDS011;27926;48.062;7.474;2023-04-20T06:03:59;9.13;;;4.57;;
42260;SDS011;27926;48.062;7.474;2023-04-20T06:06:24;9.90;;;4.72;;
42260;SDS011;27926;48.062;7.474;2023-04-20T06:08:49;7.07;;;4.30;;
42260;SDS011;27926;48.062;7.474;2023-04-20T06:11:15;9.48;;;4.57;;
42260;SDS011;27926;48.062;7.474;2023-04-20T06:13:40;12.88;;;5.15;;
42260;SDS011;27926;48.062;7.474;2023-04-20T06:16:04;8.07;;;4.78;;
42260;SDS011;27926;48.062;7.474;2023-04-20T06:18:32;8.70;;;4.70;;
42260;SDS011;27926;48.062;7.474;2023-04-20T06:20:56;7.57;;;3.85;;
42260;SDS011;27926;48.062;7.474;2023-04-20T06:23:21;9.45;;;4.55;;
42260;SDS011;27926;48.062;7.474;2023-04-20T06:25:46;10.48;;;4.85;;
42260;SDS011;27926;48.062;7.474;2023-04-20T06:28:10;7.30;;;4.32;;
42260;SDS011;27926;48.062;7.474;2023-04-20T06:30:35;6.95;;;4.22;;
42260;SDS011;27926;48.062;7.474;2023-04-20T06:33:00;13.25;;;4.43;;
42260;SDS011;27926;48.062;7.474;2023-04-20T06:35:25;10.95;;;4.30;;
42260;SDS011;27926;48.062;7.474;2023-04-20T06:37:50;13.25;;;4.45;;
42260;SDS011;27926;48.062;7.474;2023-04-20T06:40:15;10.30;;;4.93;;
42260;SDS011;27926;48.062;7.474;2023-04-20T06:42:40;10.07;;;4.63;;
42260;SDS011;27926;48.062;7.474;2023-04-20T06:45:05;9.25;;;4.75;;
42260;SDS011;27926;48.062;7.474;2023-04-20T06:47:30;15.20;;;4.78;;
42260;SDS011;27926;48.062;7.474;2023-04-20T06:49:55;9.00;;;4.90;;
42260;SDS011;27926;48.062;7.474;2023-04-20T06:52:20;11.68;;;5.05;;
42260;SDS011;27926;48.062;7.474;2023-04-20T06:54:45;14.25;;;4.55;;
42260;SDS011;27926;48.062;7.474;2023-04-20T06:57:09;14.50;;;4.60;;
42260;SDS011;27926;48.062;7.474;2023-04-20T06:59:34;12.82;;;4.72;;
42260;SDS011;27926;48.062;7.474;2023-04-20T07:01:58;11.77;;;4.53;;
42260;SDS011;27926;48.062;7.474;2023-04-20T07:04:25;8.70;;;4.45;;
42260;SDS011;27926;48.062;7.474;2023-04-20T07:06:50;10.50;;;4.82;;
42260;SDS011;27926;48.062;7.474;2023-04-20T07:09:15;15.80;;;4.57;;
42260;SDS011;27926;48.062;7.474;2023-04-20T07:11:40;9.07;;;4.53;;
42260;SDS011;27926;48.062;7.474;2023-04-20T07:14:04;14.20;;;4.43;;
42260;SDS011;27926;48.062;7.474;2023-04-20T07:16:29;13.05;;;5.30;;
42260;SDS011;27926;48.062;7.474;2023-04-20T07:18:53;11.15;;;5.15;;
42260;SDS011;27926;48.062;7.474;2023-04-20T07:21:18;9.60;;;4.63;;
42260;SDS011;27926;48.062;7.474;2023-04-20T07:23:43;10.13;;;4.70;;
42260;SDS011;27926;48.062;7.474;2023-04-20T07:26:08;9.70;;;4.85;;
42260;SDS011;27926;48.062;7.474;2023-04-20T07:28:33;11.73;;;4.70;;
42260;SDS011;27926;48.062;7.474;2023-04-20T07:30:57;13.23;;;4.85;;
42260;SDS011;27926;48.062;7.474;2023-04-20T07:33:22;7.88;;;4.47;;
42260;SDS011;27926;48.062;7.474;2023-04-20T07:35:47;8.50;;;4.57;;
42260;SDS011;27926;48.062;7.474;2023-04-20T07:38:11;17.52;;;5.00;;
42260;SDS011;27926;48.062;7.474;2023-04-20T07:40:37;15.88;;;5.43;;
42260;SDS011;27926;48.062;7.474;2023-04-20T07:43:02;8.60;;;4.90;;
42260;SDS011;27926;48.062;7.474;2023-04-20T07:45:27;6.70;;;4.53;;
42260;SDS011;27926;48.062;7.474;2023-04-20T07:47:51;10.85;;;5.00;;
42260;SDS011;27926;48.062;7.474;2023-04-20T07:50:18;20.15;;;5.65;;
42260;SDS011;27926;48.062;7.474;2023-04-20T07:52:42;9.95;;;5.70;;
42260;SDS011;27926;48.062;7.474;2023-04-20T07:55:07;10.43;;;4.82;;
42260;SDS011;27926;48.062;7.474;2023-04-20T07:57:34;12.45;;;4.75;;
42260;SDS011;27926;48.062;7.474;2023-04-20T07:59:59;8.80;;;4.60;;
42260;SDS011;27926;48.062;7.474;2023-04-20T08:02:23;8.70;;;4.55;;
42260;SDS011;27926;48.062;7.474;2023-04-20T08:04:48;8.30;;;4.47;;
42260;SDS011;27926;48.062;7.474;2023-04-20T08:07:13;8.75;;;5.00;;
42260;SDS011;27926;48.062;7.474;2023-04-20T08:09:37;10.73;;;4.97;;
42260;SDS011;27926;48.062;7.474;2023-04-20T08:12:03;10.75;;;5.25;;
42260;SDS011;27926;48.062;7.474;2023-04-20T08:14:28;9.13;;;5.03;;
42260;SDS011;27926;48.062;7.474;2023-04-20T08:16:52;9.15;;;5.07;;
42260;SDS011;27926;48.062;7.474;2023-04-20T08:19:17;9.00;;;5.68;;
42260;SDS011;27926;48.062;7.474;2023-04-20T08:21:42;11.25;;;5.60;;
42260;SDS011;27926;48.062;7.474;2023-04-20T08:24:07;13.77;;;5.28;;
42260;SDS011;27926;48.062;7.474;2023-04-20T08:26:32;17.65;;;5.75;;
42260;SDS011;27926;48.062;7.474;2023-04-20T08:28:58;22.27;;;5.45;;
42260;SDS011;27926;48.062;7.474;2023-04-20T08:31:23;11.73;;;4.90;;
42260;SDS011;27926;48.062;7.474;2023-04-20T08:33:47;12.13;;;5.28;;
42260;SDS011;27926;48.062;7.474;2023-04-20T08:36:12;9.85;;;5.03;;
42260;SDS011;27926;48.062;7.474;2023-04-20T08:38:37;13.85;;;5.45;;
42260;SDS011;27926;48.062;7.474;2023-04-20T08:41:01;10.15;;;5.20;;
42260;SDS011;27926;48.062;7.474;2023-04-20T08:43:26;10.23;;;4.88;;
42260;SDS011;27926;48.062;7.474;2023-04-20T08:45:51;10.18;;;5.90;;
42260;SDS011;27926;48.062;7.474;2023-04-20T08:48:20;11.32;;;5.20;;
42260;SDS011;27926;48.062;7.474;2023-04-20T08:50:46;8.07;;;5.10;;
42260;SDS011;27926;48.062;7.474;2023-04-20T08:53:12;7.90;;;5.28;;
42260;SDS011;27926;48.062;7.474;2023-04-20T08:55:37;8.32;;;5.40;;
42260;SDS011;27926;48.062;7.474;2023-04-20T08:58:02;9.50;;;5.15;;
42260;SDS011;27926;48.062;7.474;2023-04-20T09:00:26;7.47;;;5.03;;
42260;SDS011;27926;48.062;7.474;2023-04-20T09:02:52;6.10;;;4.05;;
42260;SDS011;27926;48.062;7.474;2023-04-20T09:05:28;12.55;;;5.20;;
42260;SDS011;27926;48.062;7.474;2023-04-20T09:07:54;9.10;;;5.10;;
42260;SDS011;27926;48.062;7.474;2023-04-20T09:10:24;21.83;;;5.85;;
42260;SDS011;27926;48.062;7.474;2023-04-20T09:12:50;9.93;;;4.95;;
42260;SDS011;27926;48.062;7.474;2023-04-20T09:15:25;16.95;;;5.28;;
42260;SDS011;27926;48.062;7.474;2023-04-20T09:17:50;8.27;;;5.03;;
42260;SDS011;27926;48.062;7.474;2023-04-20T09:20:15;12.38;;;5.00;;
42260;SDS011;27926;48.062;7.474;2023-04-20T09:22:49;20.42;;;5.72;;
42260;SDS011;27926;48.062;7.474;2023-04-20T09:25:14;9.63;;;5.93;;
42260;SDS011;27926;48.062;7.474;2023-04-20T09:27:40;9.48;;;5.53;;
42260;SDS011;27926;48.062;7.474;2023-04-20T09:30:05;9.88;;;5.68;;
42260;SDS011;27926;48.062;7.474;2023-04-20T09:32:33;13.65;;;5.90;;
42260;SDS011;27926;48.062;7.474;2023-04-20T09:34:58;14.47;;;5.93;;
42260;SDS011;27926;48.062;7.474;2023-04-20T09:37:23;10.10;;;5.65;;
42260;SDS011;27926;48.062;7.474;2023-04-20T09:39:48;6.63;;;4.80;;
42260;SDS011;27926;48.062;7.474;2023-04-20T09:42:14;7.90;;;4.90;;
42260;SDS011;27926;48.062;7.474;2023-04-20T09:44:40;10.13;;;5.47;;
42260;SDS011;27926;48.062;7.474;2023-04-20T09:47:05;10.67;;;5.63;;
42260;SDS011;27926;48.062;7.474;2023-04-20T09:49:31;12.68;;;5.45;;
42260;SDS011;27926;48.062;7.474;2023-04-20T09:51:57;9.40;;;4.47;;
42260;SDS011;27926;48.062;7.474;2023-04-20T09:54:26;8.70;;;5.13;;
42260;SDS011;27926;48.062;7.474;2023-04-20T09:56:51;7.78;;;4.85;;
42260;SDS011;27926;48.062;7.474;2023-04-20T09:59:17;13.57;;;6.30;;
42260;SDS011;27926;48.062;7.474;2023-04-20T10:01:42;7.82;;;5.03;;
42260;SDS011;27926;48.062;7.474;2023-04-20T10:04:07;12.27;;;4.88;;
42260;SDS011;27926;48.062;7.474;2023-04-20T10:06:37;7.43;;;4.72;;
42260;SDS011;27926;48.062;7.474;2023-04-20T10:09:05;12.77;;;5.10;;
42260;SDS011;27926;48.062;7.474;2023-04-20T10:14:22;10.98;;;5.78;;
42260;SDS011;27926;48.062;7.474;2023-04-20T10:16:57;8.23;;;5.15;;
42260;SDS011;27926;48.062;7.474;2023-04-20T10:22:29;9.10;;;5.05;;
42260;SDS011;27926;48.062;7.474;2023-04-20T10:24:58;7.70;;;4.85;;
42260;SDS011;27926;48.062;7.474;2023-04-20T10:27:24;8.15;;;4.45;;
42260;SDS011;27926;48.062;7.474;2023-04-20T10:29:48;6.28;;;4.22;;
42260;SDS011;27926;48.062;7.474;2023-04-20T10:32:26;10.52;;;4.07;;
42260;SDS011;27926;48.062;7.474;2023-04-20T10:35:04;7.57;;;3.85;;
42260;SDS011;27926;48.062;7.474;2023-04-20T10:37:33;9.10;;;3.60;;
42260;SDS011;27926;48.062;7.474;2023-04-20T10:42:41;7.80;;;4.40;;
42260;SDS011;27926;48.062;7.474;2023-04-20T10:45:06;7.25;;;4.43;;
42260;SDS011;27926;48.062;7.474;2023-04-20T10:47:31;8.32;;;4.45;;
42260;SDS011;27926;48.062;7.474;2023-04-20T10:52:33;7.10;;;4.13;;
42260;SDS011;27926;48.062;7.474;2023-04-20T10:55:01;14.30;;;5.05;;
42260;SDS011;27926;48.062;7.474;2023-04-20T10:57:27;12.05;;;4.80;;
42260;SDS011;27926;48.062;7.474;2023-04-20T10:59:51;6.90;;;4.38;;
42260;SDS011;27926;48.062;7.474;2023-04-20T11:02:16;7.38;;;4.60;;
42260;SDS011;27926;48.062;7.474;2023-04-20T11:04:40;6.03;;;4.00;;
42260;SDS011;27926;48.062;7.474;2023-04-20T11:07:05;7.47;;;4.00;;
42260;SDS011;27926;48.062;7.474;2023-04-20T11:09:38;6.78;;;4.07;;
42260;SDS011;27926;48.062;7.474;2023-04-20T11:12:03;8.10;;;3.80;;
42260;SDS011;27926;48.062;7.474;2023-04-20T11:14:30;8.60;;;3.72;;
42260;SDS011;27926;48.062;7.474;2023-04-20T11:17:00;9.40;;;3.80;;
42260;SDS011;27926;48.062;7.474;2023-04-20T11:19:29;10.23;;;3.10;;
42260;SDS011;27926;48.062;7.474;2023-04-20T11:21:55;4.50;;;3.25;;
42260;SDS011;27926;48.062;7.474;2023-04-20T11:24:21;5.10;;;3.22;;
42260;SDS011;27926;48.062;7.474;2023-04-20T11:26:48;7.13;;;4.00;;
42260;SDS011;27926;48.062;7.474;2023-04-20T11:29:13;5.45;;;3.35;;
42260;SDS011;27926;48.062;7.474;2023-04-20T11:31:49;9.38;;;3.58;;
42260;SDS011;27926;48.062;7.474;2023-04-20T11:34:17;6.90;;;3.63;;
42260;SDS011;27926;48.062;7.474;2023-04-20T11:36:42;6.70;;;3.15;;
42260;SDS011;27926;48.062;7.474;2023-04-20T11:39:07;8.38;;;3.47;;
42260;SDS011;27926;48.062;7.474;2023-04-20T11:41:36;6.72;;;3.47;;
42260;SDS011;27926;48.062;7.474;2023-04-20T11:44:02;5.13;;;2.80;;
42260;SDS011;27926;48.062;7.474;2023-04-20T11:46:27;7.47;;;3.45;;
42260;SDS011;27926;48.062;7.474;2023-04-20T11:48:57;6.07;;;3.15;;
42260;SDS011;27926;48.062;7.474;2023-04-20T11:51:23;8.63;;;3.45;;
42260;SDS011;27926;48.062;7.474;2023-04-20T11:56:14;6.20;;;2.58;;
42260;SDS011;27926;48.062;7.474;2023-04-20T11:58:39;7.03;;;3.15;;
42260;SDS011;27926;48.062;7.474;2023-04-20T12:01:04;4.93;;;2.53;;
42260;SDS011;27926;48.062;7.474;2023-04-20T12:03:28;5.38;;;2.67;;
42260;SDS011;27926;48.062;7.474;2023-04-20T12:05:53;3.78;;;2.33;;
42260;SDS011;27926;48.062;7.474;2023-04-20T12:08:18;3.70;;;1.80;;
42260;SDS011;27926;48.062;7.474;2023-04-20T12:10:42;2.47;;;1.80;;
42260;SDS011;27926;48.062;7.474;2023-04-20T12:13:07;2.65;;;2.15;;
42260;SDS011;27926;48.062;7.474;2023-04-20T12:15:32;4.00;;;2.33;;
42260;SDS011;27926;48.062;7.474;2023-04-20T12:17:57;4.35;;;2.40;;
42260;SDS011;27926;48.062;7.474;2023-04-20T12:20:21;3.08;;;2.08;;
42260;SDS011;27926;48.062;7.474;2023-04-20T12:22:47;3.92;;;1.63;;
42260;SDS011;27926;48.062;7.474;2023-04-20T12:25:11;7.28;;;2.47;;
42260;SDS011;27926;48.062;7.474;2023-04-20T12:27:36;3.47;;;2.05;;
42260;SDS011;27926;48.062;7.474;2023-04-20T12:30:01;4.60;;;2.60;;
42260;SDS011;27926;48.062;7.474;2023-04-20T12:32:27;7.55;;;2.13;;
42260;SDS011;27926;48.062;7.474;2023-04-20T12:34:51;2.85;;;1.85;;
42260;SDS011;27926;48.062;7.474;2023-04-20T12:37:16;7.00;;;2.55;;
42260;SDS011;27926;48.062;7.474;2023-04-20T12:39:41;3.53;;;2.60;;
42260;SDS011;27926;48.062;7.474;2023-04-20T12:42:05;5.70;;;2.17;;
42260;SDS011;27926;48.062;7.474;2023-04-20T12:44:30;5.40;;;2.45;;
42260;SDS011;27926;48.062;7.474;2023-04-20T12:46:54;4.90;;;2.17;;
42260;SDS011;27926;48.062;7.474;2023-04-20T12:49:19;2.58;;;1.52;;
42260;SDS011;27926;48.062;7.474;2023-04-20T12:51:44;6.75;;;3.33;;
42260;SDS011;27926;48.062;7.474;2023-04-20T12:54:08;5.55;;;2.83;;
42260;SDS011;27926;48.062;7.474;2023-04-20T12:56:33;6.15;;;2.65;;
42260;SDS011;27926;48.062;7.474;2023-04-20T12:58:57;2.97;;;2.00;;
42260;SDS011;27926;48.062;7.474;2023-04-20T13:01:22;6.75;;;2.88;;
42260;SDS011;27926;48.062;7.474;2023-04-20T13:03:49;3.45;;;2.15;;
42260;SDS011;27926;48.062;7.474;2023-04-20T13:06:14;4.22;;;2.80;;
42260;SDS011;27926;48.062;7.474;2023-04-20T13:08:38;4.38;;;3.25;;
42260;SDS011;27926;48.062;7.474;2023-04-20T13:11:03;6.03;;;3.58;;
42260;SDS011;27926;48.062;7.474;2023-04-20T13:13:29;12.68;;;3.33;;
42260;SDS011;27926;48.062;7.474;2023-04-20T13:15:54;13.65;;;3.85;;
42260;SDS011;27926;48.062;7.474;2023-04-20T13:18:18;9.02;;;3.50;;
42260;SDS011;27926;48.062;7.474;2023-04-20T13:20:44;4.22;;;3.03;;
42260;SDS011;27926;48.062;7.474;2023-04-20T13:23:09;5.63;;;2.58;;
42260;SDS011;27926;48.062;7.474;2023-04-20T13:25:33;4.43;;;3.15;;
42260;SDS011;27926;48.062;7.474;2023-04-20T13:27:58;4.88;;;2.92;;
42260;SDS011;27926;48.062;7.474;2023-04-20T13:30:24;8.68;;;2.90;;
42260;SDS011;27926;48.062;7.474;2023-04-20T13:32:49;5.78;;;3.00;;
42260;SDS011;27926;48.062;7.474;2023-04-20T13:35:15;7.20;;;3.60;;
42260;SDS011;27926;48.062;7.474;2023-04-20T13:37:40;6.55;;;4.03;;
42260;SDS011;27926;48.062;7.474;2023-04-20T13:40:05;10.23;;;3.83;;
42260;SDS011;27926;48.062;7.474;2023-04-20T13:42:30;6.95;;;3.92;;
42260;SDS011;27926;48.062;7.474;2023-04-20T13:44:55;7.47;;;4.60;;
42260;SDS011;27926;48.062;7.474;2023-04-20T13:47:20;4.53;;;3.55;;
42260;SDS011;27926;48.062;7.474;2023-04-20T13:49:44;7.55;;;4.53;;
42260;SDS011;27926;48.062;7.474;2023-04-20T13:52:09;9.57;;;5.00;;
42260;SDS011;27926;48.062;7.474;2023-04-20T13:54:33;12.27;;;5.47;;
42260;SDS011;27926;48.062;7.474;2023-04-20T13:56:58;7.28;;;4.65;;
42260;SDS011;27926;48.062;7.474;2023-04-20T13:59:22;11.95;;;5.63;;
42260;SDS011;27926;48.062;7.474;2023-04-20T14:01:47;8.30;;;5.53;;
42260;SDS011;27926;48.062;7.474;2023-04-20T14:04:12;9.20;;;5.55;;
42260;SDS011;27926;48.062;7.474;2023-04-20T14:06:39;10.32;;;5.70;;
42260;SDS011;27926;48.062;7.474;2023-04-20T14:09:03;8.20;;;4.80;;
42260;SDS011;27926;48.062;7.474;2023-04-20T14:11:28;8.63;;;5.32;;
42260;SDS011;27926;48.062;7.474;2023-04-20T14:13:53;7.32;;;5.00;;
42260;SDS011;27926;48.062;7.474;2023-04-20T14:16:18;7.85;;;4.38;;
42260;SDS011;27926;48.062;7.474;2023-04-20T14:18:43;7.97;;;4.68;;
42260;SDS011;27926;48.062;7.474;2023-04-20T14:21:08;6.20;;;4.13;;
42260;SDS011;27926;48.062;7.474;2023-04-20T14:23:32;6.07;;;4.28;;
42260;SDS011;27926;48.062;7.474;2023-04-20T14:25:57;13.38;;;4.75;;
42260;SDS011;27926;48.062;7.474;2023-04-20T14:28:21;7.90;;;3.97;;
42260;SDS011;27926;48.062;7.474;2023-04-20T14:30:46;6.35;;;3.60;;
42260;SDS011;27926;48.062;7.474;2023-04-20T14:33:11;4.78;;;3.42;;
42260;SDS011;27926;48.062;7.474;2023-04-20T14:35:36;5.55;;;3.60;;
42260;SDS011;27926;48.062;7.474;2023-04-20T14:38:01;6.47;;;3.90;;
42260;SDS011;27926;48.062;7.474;2023-04-20T14:40:25;5.72;;;3.47;;
42260;SDS011;27926;48.062;7.474;2023-04-20T14:42:50;6.25;;;3.47;;
42260;SDS011;27926;48.062;7.474;2023-04-20T14:45:15;6.72;;;3.30;;